Time;durP1;ratioP1;P1;durP2;ratioP2;P2;SDS_P1;SDS_P2;PMS_P1;PMS_P2;Temp;Humidity;BMP_temperature;BMP_pressure;BME280_temperature;BME280_humidity;BME280_pressure;Samples;Min_cycle;Max_cycle;Signal;HPM_P1;HPM_P2
2021/03/07 11:59:34;;;;;;;31.67;30.13;;;;;;;;;;5090995;28;20540;-72
2021/03/07 12:02:00;;;;;;;32.45;31.15;;;;;;;;;;5090953;28;20176;-73
2021/03/07 12:04:26;;;;;;;32.97;31.63;;;;;;;;;;5090749;28;20171;-73
2021/03/07 12:06:52;;;;;;;33.45;32.05;;;;;;;;;;5090826;28;20202;-73
2021/03/07 12:09:18;;;;;;;35.00;33.60;;;;;;;;;;5090713;28;20167;-73
2021/03/07 12:11:44;;;;;;;33.10;31.90;;;;;;;;;;5090656;28;20668;-73
2021/03/07 12:14:10;;;;;;;37.42;35.92;;;;;;;;;;5089331;28;20583;-73
2021/03/07 12:16:36;;;;;;;36.35;34.95;;;;;;;;;;5089321;28;20171;-73
2021/03/07 12:19:02;;;;;;;37.25;35.75;;;;;;;;;;5090515;28;20235;-73
2021/03/07 12:21:28;;;;;;;36.75;35.08;;;;;;;;;;5090554;28;20195;-73
2021/03/07 12:23:54;;;;;;;33.50;32.22;;;;;;;;;;5090395;28;20175;-73
2021/03/07 12:26:20;;;;;;;33.95;32.72;;;;;;;;;;5089072;28;20176;-73
2021/03/07 12:28:47;;;;;;;35.97;34.38;;;;;;;;;;5090371;28;20163;-73
2021/03/07 12:31:13;;;;;;;36.50;35.00;;;;;;;;;;5090315;28;20644;-73
2021/03/07 12:33:39;;;;;;;35.80;34.42;;;;;;;;;;5090255;28;20171;-73
2021/03/07 12:36:05;;;;;;;35.33;34.00;;;;;;;;;;5090242;28;20229;-73
2021/03/07 12:38:31;;;;;;;36.97;35.58;;;;;;;;;;5090118;28;20276;-73
2021/03/07 12:40:57;;;;;;;36.65;35.22;;;;;;;;;;5090113;28;20557;-73
2021/03/07 12:43:23;;;;;;;37.97;36.15;;;;;;;;;;5088828;28;20255;-73
2021/03/07 12:45:49;;;;;;;35.63;34.05;;;;;;;;;;5090054;28;20171;-73
2021/03/07 12:48:15;;;;;;;34.88;33.58;;;;;;;;;;5089984;28;20172;-73
2021/03/07 12:50:41;;;;;;;36.53;35.03;;;;;;;;;;5090035;28;20245;-73
2021/03/07 12:53:07;;;;;;;35.65;34.25;;;;;;;;;;5090015;28;20183;-73
2021/03/07 12:55:33;;;;;;;35.67;34.30;;;;;;;;;;5089852;28;20580;-73
2021/03/07 12:57:59;;;;;;;33.67;32.40;;;;;;;;;;5089962;28;20315;-74
2021/03/07 13:00:26;;;;;;;35.00;33.60;;;;;;;;;;5089903;28;20218;-73
2021/03/07 13:02:52;;;;;;;34.30;32.90;;;;;;;;;;5089679;28;20168;-73
2021/03/07 13:05:18;;;;;;;33.80;32.50;;;;;;;;;;5088249;28;20237;-73
2021/03/07 13:07:46;;;;;;;32.53;31.30;;;;;;;;;;5089738;28;20551;-74
2021/03/07 13:10:12;;;;;;;32.35;30.83;;;;;;;;;;5080526;28;20164;-74
2021/03/07 13:12:40;;;;;;;32.08;30.65;;;;;;;;;;5076428;28;20254;-73
2021/03/07 13:15:06;;;;;;;33.00;31.60;;;;;;;;;;5075841;28;20524;-73
2021/03/07 13:17:32;;;;;;;30.75;29.65;;;;;;;;;;5076610;28;20172;-73
2021/03/07 13:19:58;;;;;;;32.53;30.98;;;;;;;;;;5076171;28;20175;-73
2021/03/07 13:22:24;;;;;;;31.55;30.40;;;;;;;;;;5075893;28;20200;-73
2021/03/07 13:24:52;;;;;;;31.90;30.70;;;;;;;;;;5075967;28;20201;-73
2021/03/07 13:27:17;;;;;;;31.50;30.30;;;;;;;;;;5076188;28;20179;-73
2021/03/07 13:29:43;;;;;;;32.08;30.88;;;;;;;;;;5076539;28;20164;-73
2021/03/07 13:32:11;;;;;;;34.25;32.88;;;;;;;;;;5075747;28;20264;-73
2021/03/07 13:34:37;;;;;;;33.92;32.58;;;;;;;;;;5075689;28;20192;-73
2021/03/07 13:37:03;;;;;;;32.25;31.05;;;;;;;;;;5074398;28;20641;-73
2021/03/07 13:39:29;;;;;;;32.00;30.80;;;;;;;;;;5075624;28;20608;-73
2021/03/07 13:41:56;;;;;;;35.20;33.80;;;;;;;;;;5075577;28;20176;-73
2021/03/07 13:44:22;;;;;;;32.80;31.52;;;;;;;;;;5075554;28;20573;-73
2021/03/07 13:46:48;;;;;;;31.42;30.33;;;;;;;;;;5075486;28;20176;-73
2021/03/07 13:49:13;;;;;;;31.67;30.48;;;;;;;;;;5075273;28;20227;-73
2021/03/07 13:51:39;;;;;;;32.05;30.95;;;;;;;;;;5075337;28;20255;-73
2021/03/07 13:54:05;;;;;;;32.20;31.00;;;;;;;;;;5074087;28;20176;-73
2021/03/07 13:56:31;;;;;;;33.72;32.28;;;;;;;;;;5075222;28;20164;-73
2021/03/07 13:58:57;;;;;;;33.55;32.33;;;;;;;;;;5075012;28;20224;-73
2021/03/07 14:01:23;;;;;;;34.20;32.85;;;;;;;;;;5075216;28;20176;-73
2021/03/07 14:03:50;;;;;;;32.80;31.58;;;;;;;;;;5075125;28;20176;-73
2021/03/07 14:06:16;;;;;;;31.98;30.77;;;;;;;;;;5074916;28;20649;-73
2021/03/07 14:08:42;;;;;;;31.73;30.52;;;;;;;;;;5074953;28;20206;-73
2021/03/07 14:11:08;;;;;;;33.90;32.60;;;;;;;;;;5073711;28;20689;-73
2021/03/07 14:13:34;;;;;;;33.15;31.92;;;;;;;;;;5074918;28;20176;-73
2021/03/07 14:16:00;;;;;;;31.73;30.52;;;;;;;;;;5074898;28;20196;-73
2021/03/07 14:18:26;;;;;;;32.70;31.50;;;;;;;;;;5074799;28;20218;-73
2021/03/07 14:20:52;;;;;;;32.67;31.48;;;;;;;;;;5072719;28;20180;-73
2021/03/07 14:23:18;;;;;;;30.52;29.42;;;;;;;;;;5074470;28;20557;-73
2021/03/07 14:25:44;;;;;;;30.10;29.10;;;;;;;;;;5074661;28;20226;-73
2021/03/07 14:28:10;;;;;;;32.20;31.05;;;;;;;;;;5074549;28;20229;-77
2021/03/07 14:30:36;;;;;;;32.15;30.95;;;;;;;;;;5074587;28;20175;-77
2021/03/07 14:33:02;;;;;;;30.23;29.23;;;;;;;;;;5074545;28;20204;-77
2021/03/07 14:35:28;;;;;;;31.25;30.08;;;;;;;;;;5074587;28;20177;-75
2021/03/07 14:37:54;;;;;;;29.90;28.90;;;;;;;;;;5074412;28;20198;-75
2021/03/07 14:40:20;;;;;;;31.27;30.17;;;;;;;;;;5074387;28;20172;-75
2021/03/07 14:42:46;;;;;;;29.88;28.77;;;;;;;;;;5074519;28;20177;-75
2021/03/07 14:45:13;;;;;;;30.42;29.38;;;;;;;;;;5074334;28;20172;-75
2021/03/07 14:47:39;;;;;;;30.67;29.48;;;;;;;;;;5072825;28;20318;-76
2021/03/07 14:50:06;;;;;;;30.17;29.02;;;;;;;;;;5072782;28;20172;-77
2021/03/07 14:52:32;;;;;;;28.73;27.77;;;;;;;;;;5074129;28;20222;-77
2021/03/07 14:54:58;;;;;;;30.15;29.05;;;;;;;;;;5074123;28;20168;-78
2021/03/07 14:57:24;;;;;;;31.10;30.00;;;;;;;;;;5073819;28;20533;-79
2021/03/07 14:59:50;;;;;;;29.77;28.77;;;;;;;;;;5074002;28;20184;-78
2021/03/07 15:02:15;;;;;;;31.92;30.73;;;;;;;;;;5072688;28;20172;-78
2021/03/07 15:04:41;;;;;;;31.95;30.50;;;;;;;;;;5073861;28;20230;-78
2021/03/07 15:07:07;;;;;;;29.33;28.13;;;;;;;;;;5073880;28;20188;-79
2021/03/07 15:09:34;;;;;;;29.58;28.55;;;;;;;;;;5075922;28;20235;-77
2021/03/07 15:12:00;;;;;;;31.92;30.73;;;;;;;;;;5074691;28;20526;-79
2021/03/07 15:14:26;;;;;;;30.52;29.42;;;;;;;;;;5073761;28;20168;-78
2021/03/07 15:16:53;;;;;;;28.67;27.73;;;;;;;;;;5072495;28;20168;-78
2021/03/07 15:19:20;;;;;;;29.27;28.27;;;;;;;;;;5073597;28;20198;-78
2021/03/07 15:21:46;;;;;;;30.60;29.50;;;;;;;;;;5073719;28;20172;-78
2021/03/07 15:24:12;;;;;;;28.60;27.60;;;;;;;;;;5073672;28;20169;-78
2021/03/07 15:26:38;;;;;;;28.17;27.27;;;;;;;;;;5074054;28;20172;-76
2021/03/07 15:29:04;;;;;;;30.65;29.55;;;;;;;;;;5072169;28;20653;-75
2021/03/07 15:31:30;;;;;;;29.92;28.88;;;;;;;;;;5074230;28;20191;-75
2021/03/07 15:33:56;;;;;;;31.08;29.92;;;;;;;;;;5074101;28;20179;-75
2021/03/07 15:36:22;;;;;;;30.70;29.70;;;;;;;;;;5074087;28;20176;-76
2021/03/07 15:38:48;;;;;;;29.80;28.80;;;;;;;;;;5074070;28;20199;-76
2021/03/07 15:41:14;;;;;;;29.35;28.35;;;;;;;;;;5073395;28;20614;-76
2021/03/07 15:43:40;;;;;;;29.23;28.23;;;;;;;;;;5073371;28;20207;-76
2021/03/07 15:46:06;;;;;;;30.40;29.27;;;;;;;;;;5073348;28;20580;-76
2021/03/07 15:48:32;;;;;;;30.48;29.38;;;;;;;;;;5072990;28;20283;-76
2021/03/07 15:50:59;;;;;;;31.10;30.00;;;;;;;;;;5071814;28;20207;-75
2021/03/07 15:53:25;;;;;;;29.20;28.20;;;;;;;;;;5071785;28;20165;-75
2021/03/07 15:55:51;;;;;;;31.67;29.88;;;;;;;;;;5071796;28;20184;-75
2021/03/07 15:58:16;;;;;;;30.27;29.23;;;;;;;;;;5072936;28;20219;-74
2021/03/07 16:00:42;;;;;;;30.23;29.13;;;;;;;;;;5073083;28;20172;-75
2021/03/07 16:03:08;;;;;;;29.05;28.05;;;;;;;;;;5073005;28;20168;-75
2021/03/07 16:05:34;;;;;;;29.85;28.75;;;;;;;;;;5072923;28;20199;-74
2021/03/07 16:08:02;;;;;;;30.98;29.88;;;;;;;;;;5072923;28;20242;-74
2021/03/07 16:10:28;;;;;;;31.63;30.52;;;;;;;;;;5072893;28;20164;-74
2021/03/07 16:12:54;;;;;;;31.50;28.98;;;;;;;;;;5071826;28;20218;-74
2021/03/07 16:15:22;;;;;;;28.65;27.70;;;;;;;;;;5072821;28;20169;-74
2021/03/07 16:17:47;;;;;;;26.55;25.70;;;;;;;;;;5072867;28;20499;-74
2021/03/07 16:20:14;;;;;;;27.88;26.98;;;;;;;;;;5072906;28;20297;-74
2021/03/07 16:22:40;;;;;;;27.60;26.70;;;;;;;;;;5072857;28;20652;-74
2021/03/07 16:25:06;;;;;;;28.75;27.75;;;;;;;;;;5072809;28;20172;-75
2021/03/07 16:27:32;;;;;;;28.75;27.75;;;;;;;;;;5072724;28;20172;-75
2021/03/07 16:29:58;;;;;;;28.80;27.80;;;;;;;;;;5072644;28;20299;-74
2021/03/07 16:32:24;;;;;;;29.00;28.00;;;;;;;;;;5072792;28;20200;-75
2021/03/07 16:34:50;;;;;;;29.50;28.50;;;;;;;;;;5072738;28;20175;-75
2021/03/07 16:37:16;;;;;;;30.10;29.10;;;;;;;;;;5072630;28;20164;-74
2021/03/07 16:39:42;;;;;;;29.63;28.63;;;;;;;;;;5072605;28;20168;-73
2021/03/07 16:42:08;;;;;;;30.08;29.08;;;;;;;;;;5072576;28;20169;-73
2021/03/07 16:44:34;;;;;;;28.83;27.85;;;;;;;;;;5073303;28;20165;-73
2021/03/07 16:47:00;;;;;;;30.08;28.98;;;;;;;;;;5075077;28;20180;-74
2021/03/07 16:49:26;;;;;;;29.55;28.55;;;;;;;;;;5076202;28;20545;-74
2021/03/07 16:51:52;;;;;;;30.88;29.67;;;;;;;;;;5076244;28;20243;-72
2021/03/07 16:54:21;;;;;;;29.88;28.88;;;;;;;;;;5076114;28;20160;-72
